createdAt,value
2018-09-14T00:01:21.099Z,13.46
2018-09-14T00:03:48.813Z,13.57
2018-09-14T00:06:16.399Z,13.64
2018-09-14T00:08:54.096Z,13.56
2018-09-14T00:11:21.651Z,13.43
2018-09-14T00:13:54.340Z,13.34
2018-09-14T00:16:21.883Z,13.64
2018-09-14T00:18:49.447Z,13.66
2018-09-14T00:21:17.036Z,13.63
2018-09-14T00:23:44.614Z,13.28
2018-09-14T00:26:12.201Z,13.29
2018-09-14T00:28:39.729Z,13.25
2018-09-14T00:31:11.408Z,13.43
2018-09-14T00:33:38.940Z,13.72
2018-09-14T00:36:06.512Z,13.94
2018-09-14T00:38:34.964Z,13.47
2018-09-14T00:41:06.469Z,13.02
2018-09-14T00:43:33.982Z,13.25
2018-09-14T00:46:01.588Z,13.33
2018-09-14T00:48:34.622Z,13.08
2018-09-14T00:51:02.194Z,13.12
2018-09-14T00:53:29.779Z,13.30
2018-09-14T00:56:01.368Z,13.16
2018-09-14T00:58:28.935Z,13.34
2018-09-14T01:00:56.555Z,13.18
2018-09-14T01:03:24.066Z,13.36
2018-09-14T01:05:51.794Z,13.13
2018-09-14T01:08:19.342Z,12.99
2018-09-14T01:10:46.909Z,12.83
2018-09-14T01:13:14.455Z,12.92
2018-09-14T01:15:48.990Z,13.13
2018-09-14T01:18:16.592Z,13.12
2018-09-14T01:20:45.151Z,13.10
2018-09-14T01:23:12.663Z,13.32
2018-09-14T01:25:40.207Z,13.28
2018-09-14T01:28:11.952Z,13.11
2018-09-14T01:30:39.519Z,13.21
2018-09-14T01:33:07.075Z,12.91
2018-09-14T01:35:34.618Z,13.00
2018-09-14T01:38:02.168Z,12.97
2018-09-14T01:40:29.749Z,13.18
2018-09-14T01:42:57.291Z,13.33
2018-09-14T01:45:24.861Z,13.58
2018-09-14T01:47:52.399Z,13.73
2018-09-14T01:50:19.989Z,13.76
2018-09-14T01:52:47.506Z,13.68
2018-09-14T01:55:16.031Z,13.61
2018-09-14T01:57:43.557Z,13.55
2018-09-14T02:00:11.462Z,13.54
2018-09-14T02:02:38.985Z,13.21
2018-09-14T02:05:06.509Z,13.18
2018-09-14T02:07:34.105Z,13.30
2018-09-14T02:10:01.656Z,13.00
2018-09-14T02:12:29.227Z,13.03
2018-09-14T02:14:56.768Z,13.26
2018-09-14T02:17:24.330Z,13.39
2018-09-14T02:19:51.871Z,13.17
2018-09-14T02:22:21.461Z,13.20
2018-09-14T02:24:48.977Z,13.24
2018-09-14T02:27:16.531Z,13.36
2018-09-14T02:29:48.478Z,13.49
2018-09-14T02:32:16.023Z,13.68
2018-09-14T02:34:43.629Z,13.53
2018-09-14T02:37:11.137Z,13.56
2018-09-14T02:39:38.693Z,13.79
2018-09-14T02:42:06.204Z,13.74
2018-09-14T02:44:33.767Z,13.44
2018-09-14T02:47:01.301Z,13.45
2018-09-14T02:49:28.863Z,13.29
2018-09-14T02:51:56.397Z,13.09
2018-09-14T02:54:23.995Z,12.89
2018-09-14T02:56:51.555Z,12.95
2018-09-14T02:59:19.117Z,13.09
2018-09-14T03:01:46.694Z,13.14
2018-09-14T03:04:14.269Z,13.21
2018-09-14T03:06:41.797Z,13.44
2018-09-14T03:09:09.427Z,13.56
2018-09-14T03:11:38.921Z,13.38
2018-09-14T03:14:06.712Z,13.52
2018-09-14T03:16:34.256Z,12.72
2018-09-14T03:19:07.965Z,12.75
2018-09-14T03:21:35.642Z,13.01
2018-09-14T03:24:03.231Z,12.82
2018-09-14T03:26:31.561Z,12.65
2018-09-14T03:28:59.076Z,12.40
2018-09-14T03:31:26.642Z,12.94
2018-09-14T03:33:54.163Z,13.07
2018-09-14T03:36:21.783Z,12.99
2018-09-14T03:38:49.335Z,13.25
2018-09-14T03:41:16.896Z,13.32
2018-09-14T03:43:44.474Z,13.27
2018-09-14T03:46:16.005Z,13.26
2018-09-14T03:48:43.577Z,13.15
2018-09-14T03:51:11.167Z,13.25
2018-09-14T03:53:38.731Z,13.13
2018-09-14T03:56:06.245Z,13.39
2018-09-14T03:58:33.830Z,13.55
2018-09-14T04:01:08.966Z,13.29
2018-09-14T04:03:36.537Z,13.52
2018-09-14T04:06:04.475Z,13.42
2018-09-14T04:08:32.085Z,13.62
2018-09-14T04:10:59.685Z,13.35
2018-09-14T04:13:27.274Z,13.43
2018-09-14T04:16:01.121Z,13.65
2018-09-14T04:18:28.672Z,13.74
2018-09-14T04:21:10.686Z,13.73
2018-09-14T04:23:38.338Z,13.49
2018-09-14T04:26:05.912Z,13.19
2018-09-14T04:28:36.577Z,13.34
2018-09-14T04:31:04.095Z,13.58
2018-09-14T04:33:31.700Z,13.74
2018-09-14T04:36:01.361Z,13.83
2018-09-14T04:38:28.939Z,13.90
2018-09-14T04:40:56.536Z,13.96
2018-09-14T04:43:26.255Z,13.94
2018-09-14T04:45:53.804Z,13.75
2018-09-14T04:48:21.370Z,13.45
2018-09-14T04:50:50.123Z,13.83
2018-09-14T04:53:17.908Z,13.88
2018-09-14T04:55:45.481Z,13.88
2018-09-14T04:58:13.078Z,13.90
2018-09-14T05:00:40.599Z,13.86
2018-09-14T05:03:08.147Z,13.90
2018-09-14T05:05:35.850Z,13.83
2018-09-14T05:08:03.370Z,13.96
2018-09-14T05:10:34.743Z,13.89
2018-09-14T05:13:02.297Z,13.99
2018-09-14T05:15:30.056Z,14.02
2018-09-14T05:17:57.603Z,13.98
2018-09-14T05:20:25.238Z,13.96
2018-09-14T05:22:52.778Z,13.94
2018-09-14T05:25:20.337Z,13.96
2018-09-14T05:27:47.916Z,14.08
2018-09-14T05:30:15.467Z,14.06
2018-09-14T05:32:43.097Z,14.05
2018-09-14T05:35:10.663Z,14.06
2018-09-14T05:37:38.226Z,14.04
2018-09-14T05:40:05.802Z,13.85
2018-09-14T05:42:33.353Z,14.03
2018-09-14T05:45:01.942Z,14.08
2018-09-14T05:47:29.518Z,14.10
2018-09-14T05:49:57.077Z,14.13
2018-09-14T05:52:24.676Z,14.14
2018-09-14T05:54:52.357Z,14.06
2018-09-14T05:59:42.758Z,14.19
2018-09-14T06:02:10.479Z,14.20
2018-09-14T06:04:43.743Z,14.22
2018-09-14T06:07:16.942Z,14.31
2018-09-14T06:09:51.871Z,13.97
2018-09-14T06:12:25.161Z,13.92
2018-09-14T06:14:53.903Z,13.75
2018-09-14T06:17:25.927Z,13.91
2018-09-14T06:19:55.577Z,13.93
2018-09-14T06:22:25.151Z,14.06
2018-09-14T06:24:52.728Z,13.86
2018-09-14T06:27:20.336Z,14.12
2018-09-14T06:29:47.926Z,14.16
2018-09-14T06:32:17.427Z,13.99
2018-09-14T06:34:45.006Z,14.05
2018-09-14T06:37:13.691Z,14.28
2018-09-14T06:39:41.281Z,14.32
2018-09-14T06:42:08.810Z,14.42
2018-09-14T06:44:38.465Z,14.46
2018-09-14T06:47:06.167Z,14.53
2018-09-14T06:49:33.753Z,14.64
2018-09-14T06:52:03.627Z,14.67
2018-09-14T06:54:31.184Z,14.69
2018-09-14T06:56:58.759Z,14.78
2018-09-14T06:59:27.485Z,14.85
2018-09-14T07:01:55.037Z,14.90
2018-09-14T07:04:27.974Z,14.93
2018-09-14T07:06:57.694Z,14.97
2018-09-14T07:09:25.530Z,15.02
2018-09-14T07:11:53.508Z,15.01
2018-09-14T07:14:21.358Z,15.04
2018-09-14T07:16:49.533Z,15.09
2018-09-14T07:19:17.489Z,15.16
2018-09-14T07:21:45.456Z,15.20
2018-09-14T07:24:24.123Z,15.32
2018-09-14T07:26:51.948Z,15.35
2018-09-14T07:29:23.664Z,15.45
2018-09-14T07:31:55.174Z,15.49
2018-09-14T07:34:22.785Z,15.45
2018-09-14T07:36:52.603Z,15.51
2018-09-14T07:39:20.763Z,15.50
2018-09-14T07:41:48.533Z,15.25
2018-09-14T07:44:17.229Z,15.18
2018-09-14T07:46:45.088Z,15.17
2018-09-14T07:49:13.876Z,15.20
2018-09-14T07:51:47.134Z,15.27
2018-09-14T07:54:15.778Z,15.25
2018-09-14T07:56:45.560Z,15.26
2018-09-14T07:59:13.569Z,15.16
2018-09-14T08:01:44.895Z,15.14
2018-09-14T08:04:13.634Z,15.29
2018-09-14T08:06:44.576Z,15.22
2018-09-14T08:09:13.649Z,15.24
2018-09-14T08:11:42.949Z,15.40
2018-09-14T08:14:11.500Z,15.47
2018-09-14T08:16:40.974Z,15.50
2018-09-14T08:19:10.564Z,15.63
2018-09-14T08:21:38.736Z,15.63
2018-09-14T08:24:07.392Z,15.69
2018-09-14T08:26:35.328Z,15.80
2018-09-14T08:29:05.741Z,15.88
2018-09-14T08:31:40.553Z,15.96
2018-09-14T08:34:08.500Z,15.94
2018-09-14T08:36:36.118Z,15.93
2018-09-14T08:39:03.802Z,16.08
2018-09-14T08:41:31.413Z,16.07
2018-09-14T08:43:59.061Z,16.16
2018-09-14T08:46:26.675Z,16.12
2018-09-14T08:48:58.675Z,16.27
2018-09-14T08:51:27.366Z,16.34
2018-09-14T08:53:55.130Z,16.29
2018-09-14T08:56:22.955Z,16.42
2018-09-14T08:58:50.561Z,16.49
2018-09-14T09:01:18.417Z,16.35
2018-09-14T09:03:46.097Z,16.48
2018-09-14T09:06:13.637Z,16.63
2018-09-14T09:08:41.428Z,16.58
2018-09-14T09:11:09.105Z,16.70
2018-09-14T09:13:39.668Z,16.78
2018-09-14T09:16:07.398Z,16.91
2018-09-14T09:18:35.052Z,16.93
2018-09-14T09:21:03.581Z,16.90
2018-09-14T09:23:31.263Z,17.13
2018-09-14T09:25:58.791Z,17.08
2018-09-14T09:28:27.510Z,17.00
2018-09-14T09:30:55.134Z,17.11
2018-09-14T09:33:27.694Z,16.88
2018-09-14T09:35:56.314Z,16.97
2018-09-14T09:38:25.969Z,16.89
2018-09-14T09:40:58.306Z,17.02
2018-09-14T09:43:26.366Z,17.04
2018-09-14T09:45:53.756Z,17.29
2018-09-14T09:48:25.262Z,17.15
2018-09-14T09:50:55.090Z,17.19
2018-09-14T09:53:22.799Z,17.31
2018-09-14T09:55:50.516Z,17.34
2018-09-14T09:58:18.178Z,17.57
2018-09-14T10:00:45.759Z,17.47
2018-09-14T10:03:13.348Z,17.54
2018-09-14T10:05:55.819Z,17.67
2018-09-14T10:08:23.471Z,17.86
2018-09-14T10:10:51.379Z,17.88
2018-09-14T10:13:19.120Z,17.86
2018-09-14T10:15:46.832Z,17.87
2018-09-14T10:18:16.389Z,17.72
2018-09-14T10:20:45.172Z,17.73
2018-09-14T10:23:12.838Z,17.66
2018-09-14T10:25:40.623Z,17.79
2018-09-14T10:28:08.632Z,17.78
2018-09-14T10:30:37.355Z,17.96
2018-09-14T10:33:05.022Z,18.00
2018-09-14T10:35:32.632Z,18.15
2018-09-14T10:38:00.393Z,18.08
2018-09-14T10:40:28.029Z,17.79
2018-09-14T10:42:59.801Z,18.14
2018-09-14T10:45:31.255Z,17.98
2018-09-14T10:47:58.854Z,18.13
2018-09-14T10:50:26.511Z,17.73
2018-09-14T10:52:54.294Z,17.94
2018-09-14T10:55:21.971Z,18.06
2018-09-14T10:57:51.685Z,17.98
2018-09-14T11:00:19.531Z,17.98
2018-09-14T11:02:47.344Z,18.00
2018-09-14T11:05:21.303Z,18.07
2018-09-14T11:07:48.938Z,18.04
2018-09-14T11:10:16.500Z,18.07
2018-09-14T11:12:44.111Z,17.71
2018-09-14T11:15:11.894Z,17.84
2018-09-14T11:17:39.622Z,17.78
2018-09-14T11:20:07.354Z,17.89
2018-09-14T11:22:36.012Z,17.95
2018-09-14T11:25:03.723Z,17.81
2018-09-14T11:27:31.178Z,17.68
2018-09-14T11:30:02.540Z,18.08
2018-09-14T11:32:30.206Z,18.21
2018-09-14T11:34:59.758Z,18.21
2018-09-14T11:37:27.351Z,18.24
2018-09-14T11:40:00.256Z,18.29
2018-09-14T11:42:31.995Z,18.48
2018-09-14T11:44:59.577Z,18.68
2018-09-14T11:47:27.188Z,18.80
2018-09-14T11:49:54.729Z,18.69
2018-09-14T11:52:22.340Z,18.61
2018-09-14T11:54:49.884Z,18.53
2018-09-14T11:57:23.212Z,18.65
2018-09-14T11:59:52.782Z,18.86
2018-09-14T12:02:22.430Z,18.74
2018-09-14T12:04:51.063Z,18.92
2018-09-14T12:07:18.657Z,18.93
2018-09-14T12:09:47.261Z,19.06
2018-09-14T12:12:18.362Z,19.06
2018-09-14T12:14:45.910Z,18.82
2018-09-14T12:17:13.432Z,18.80
2018-09-14T12:19:41.619Z,18.84
2018-09-14T12:22:09.700Z,18.79
2018-09-14T12:24:37.203Z,18.99
2018-09-14T12:27:09.613Z,18.82
2018-09-14T12:29:38.285Z,18.83
2018-09-14T12:32:10.064Z,18.64
2018-09-14T12:34:39.628Z,18.66
2018-09-14T12:37:08.361Z,18.47
2018-09-14T12:39:35.911Z,18.51
2018-09-14T12:42:03.480Z,18.68
2018-09-14T12:44:31.967Z,18.73
2018-09-14T12:46:59.511Z,19.00
2018-09-14T12:49:27.073Z,19.03
2018-09-14T12:51:54.654Z,19.18
2018-09-14T12:54:22.227Z,19.32
2018-09-14T12:56:49.748Z,19.30
2018-09-14T12:59:17.414Z,19.12
2018-09-14T13:01:45.054Z,19.33
2018-09-14T13:04:12.639Z,19.24
2018-09-14T13:06:40.184Z,18.89
2018-09-14T13:09:07.719Z,19.07
2018-09-14T13:11:35.297Z,18.87
2018-09-14T13:14:02.857Z,19.07
2018-09-14T13:16:30.430Z,19.04
2018-09-14T13:18:57.958Z,19.05
2018-09-14T13:21:25.530Z,19.30
2018-09-14T13:23:53.065Z,19.49
2018-09-14T13:26:20.653Z,19.68
2018-09-14T13:28:48.184Z,19.66
2018-09-14T13:31:15.712Z,19.81
2018-09-14T13:33:43.352Z,19.39
2018-09-14T13:36:10.870Z,19.09
2018-09-14T13:38:38.411Z,19.41
2018-09-14T13:41:05.983Z,19.61
2018-09-14T13:43:33.497Z,19.64
2018-09-14T13:46:01.074Z,19.86
2018-09-14T13:48:28.599Z,19.91
2018-09-14T13:50:56.173Z,19.76
2018-09-14T13:53:23.716Z,19.80
2018-09-14T13:55:51.316Z,19.65
2018-09-14T13:58:18.847Z,19.43
2018-09-14T14:00:47.502Z,19.68
2018-09-14T14:03:15.067Z,19.73
2018-09-14T14:05:42.603Z,20.03
2018-09-14T14:08:10.152Z,19.83
2018-09-14T14:10:37.702Z,19.43
2018-09-14T14:13:05.253Z,19.35
2018-09-14T14:15:32.806Z,19.73
2018-09-14T14:18:00.327Z,19.89
2018-09-14T14:20:27.940Z,19.95
2018-09-14T14:22:55.518Z,19.98
2018-09-14T14:25:23.287Z,19.99
2018-09-14T14:27:50.851Z,20.04
2018-09-14T14:30:18.479Z,19.87
2018-09-14T14:32:46.108Z,19.61
2018-09-14T14:35:13.967Z,19.54
2018-09-14T14:37:41.499Z,19.76
2018-09-14T14:40:09.286Z,19.64
2018-09-14T14:42:37.079Z,19.48
2018-09-14T14:45:06.162Z,19.91
2018-09-14T14:47:34.026Z,19.99
2018-09-14T14:50:01.603Z,20.11
2018-09-14T14:52:29.194Z,20.14
2018-09-14T14:54:56.781Z,20.07
2018-09-14T14:57:24.435Z,20.00
2018-09-14T14:59:52.027Z,20.15
2018-09-14T15:02:19.579Z,20.02
2018-09-14T15:04:47.281Z,20.00
2018-09-14T15:07:14.826Z,19.93
2018-09-14T15:09:42.555Z,20.11
2018-09-14T15:12:10.091Z,19.90
2018-09-14T15:14:37.669Z,20.18
2018-09-14T15:17:05.216Z,20.38
2018-09-14T15:19:32.800Z,20.64
2018-09-14T15:22:00.405Z,20.62
2018-09-14T15:24:28.146Z,20.37
2018-09-14T15:26:55.688Z,20.31
2018-09-14T15:29:23.469Z,20.40
2018-09-14T15:31:51.157Z,20.24
2018-09-14T15:34:18.772Z,20.31
2018-09-14T15:36:46.347Z,20.38
2018-09-14T15:39:13.963Z,20.51
2018-09-14T15:41:41.661Z,20.43
2018-09-14T15:44:09.203Z,20.43
2018-09-14T15:46:36.923Z,20.46
2018-09-14T15:49:05.192Z,20.41
2018-09-14T15:51:34.263Z,20.25
2018-09-14T15:54:01.904Z,20.57
2018-09-14T15:56:29.507Z,20.50
2018-09-14T15:58:58.084Z,20.59
2018-09-14T16:01:25.648Z,20.32
2018-09-14T16:03:53.235Z,20.12
2018-09-14T16:06:20.818Z,20.18
2018-09-14T16:08:48.578Z,20.18
2018-09-14T16:11:16.144Z,20.19
2018-09-14T16:13:43.780Z,20.11
2018-09-14T16:16:12.456Z,20.05
2018-09-14T16:18:40.194Z,19.95
2018-09-14T16:21:07.791Z,19.71
2018-09-14T16:23:37.286Z,19.59
2018-09-14T16:26:04.807Z,19.48
2018-09-14T16:28:32.570Z,19.51
2018-09-14T16:31:00.163Z,19.32
2018-09-14T16:33:27.734Z,19.58
2018-09-14T16:35:55.252Z,19.63
2018-09-14T16:38:22.832Z,19.45
2018-09-14T16:40:50.382Z,19.77
2018-09-14T16:43:17.934Z,19.76
2018-09-14T16:45:45.475Z,19.68
2018-09-14T16:48:13.046Z,19.75
2018-09-14T16:50:40.603Z,19.50
2018-09-14T16:53:08.111Z,19.48
2018-09-14T16:55:35.675Z,19.58
2018-09-14T16:58:09.678Z,19.30
2018-09-14T17:00:37.269Z,19.28
2018-09-14T17:03:04.871Z,19.41
2018-09-14T17:05:32.427Z,19.34
2018-09-14T17:08:00.001Z,19.43
2018-09-14T17:10:27.640Z,19.33
2018-09-14T17:12:55.177Z,19.27
2018-09-14T17:15:22.873Z,19.31
2018-09-14T17:17:50.385Z,19.36
2018-09-14T17:20:17.961Z,19.26
2018-09-14T17:22:50.117Z,19.17
2018-09-14T17:25:17.708Z,19.27
2018-09-14T17:27:45.232Z,19.37
2018-09-14T17:30:12.821Z,19.15
2018-09-14T17:32:40.381Z,19.04
2018-09-14T17:35:08.040Z,19.27
2018-09-14T17:37:36.724Z,19.25
2018-09-14T17:40:04.271Z,19.17
2018-09-14T17:42:36.613Z,19.28
2018-09-14T17:45:04.170Z,19.27
2018-09-14T17:47:31.707Z,19.03
2018-09-14T17:49:59.219Z,18.94
2018-09-14T17:52:26.807Z,18.82
2018-09-14T17:54:55.404Z,18.55
2018-09-14T17:57:22.976Z,18.51
2018-09-14T17:59:50.537Z,18.18
2018-09-14T18:02:18.120Z,18.59
2018-09-14T18:04:45.684Z,18.41
2018-09-14T18:07:13.525Z,18.44
2018-09-14T18:09:41.075Z,18.51
2018-09-14T18:12:10.733Z,18.11
2018-09-14T18:14:38.271Z,18.31
2018-09-14T18:17:05.839Z,18.29
2018-09-14T18:19:33.346Z,18.23
2018-09-14T18:22:16.143Z,18.02
2018-09-14T18:24:43.713Z,17.83
2018-09-14T18:27:11.289Z,17.70
2018-09-14T18:29:38.858Z,17.82
2018-09-14T18:32:06.411Z,17.83
2018-09-14T18:34:34.106Z,17.51
2018-09-14T18:37:01.689Z,17.52
2018-09-14T18:39:32.402Z,17.50
2018-09-14T18:42:00.221Z,17.40
2018-09-14T18:44:27.910Z,17.38
2018-09-14T18:46:55.494Z,17.37
2018-09-14T18:49:23.037Z,17.59
2018-09-14T18:51:50.596Z,17.33
2018-09-14T18:54:23.000Z,17.36
2018-09-14T18:56:50.638Z,17.25
2018-09-14T18:59:18.167Z,17.11
2018-09-14T19:01:45.689Z,17.05
2018-09-14T19:04:13.255Z,16.83
2018-09-14T19:06:41.825Z,17.03
2018-09-14T19:09:11.494Z,17.12
2018-09-14T19:11:39.035Z,16.95
2018-09-14T19:14:06.549Z,17.06
2018-09-14T19:16:34.112Z,17.09
2018-09-14T19:25:21.403Z,16.96
2018-09-14T19:27:49.736Z,17.05
2018-09-14T19:30:17.330Z,16.95
2018-09-14T19:32:49.521Z,16.97
2018-09-14T19:35:17.233Z,16.86
2018-09-14T19:37:44.777Z,16.84
2018-09-14T19:40:12.399Z,16.95
2018-09-14T19:42:40.107Z,17.12
2018-09-14T19:45:07.835Z,16.97
2018-09-14T19:47:35.508Z,16.75
2018-09-14T19:50:03.113Z,16.72
2018-09-14T19:52:30.682Z,16.48
2018-09-14T19:54:58.214Z,16.57
2018-09-14T19:57:25.846Z,16.70
2018-09-14T19:59:54.004Z,16.77
2018-09-14T20:02:21.739Z,16.81
2018-09-14T20:04:49.470Z,16.93
2018-09-14T20:07:17.059Z,17.17
2018-09-14T20:09:44.634Z,17.09
2018-09-14T20:12:12.161Z,17.07
2018-09-14T20:14:46.682Z,16.96
2018-09-14T20:17:16.337Z,16.72
2018-09-14T20:19:43.958Z,16.48
2018-09-14T20:22:11.503Z,16.66
2018-09-14T20:24:39.059Z,16.36
2018-09-14T20:27:06.624Z,16.60
2018-09-14T20:29:39.197Z,16.58
2018-09-14T20:32:07.372Z,16.84
2018-09-14T20:34:34.927Z,16.71
2018-09-14T20:37:02.503Z,17.02
2018-09-14T20:39:30.216Z,16.83
2018-09-14T20:41:57.732Z,16.91
2018-09-14T20:44:25.430Z,17.09
2018-09-14T20:46:54.396Z,16.73
2018-09-14T20:49:22.495Z,16.91
2018-09-14T20:51:50.092Z,16.89
2018-09-14T20:54:17.741Z,16.77
2018-09-14T20:56:45.315Z,16.59
2018-09-14T21:05:58.974Z,16.81
2018-09-14T21:19:05.694Z,17.13
2018-09-14T21:21:35.337Z,17.05
2018-09-14T21:24:03.894Z,16.88
2018-09-14T21:26:32.771Z,16.97
2018-09-14T21:29:00.359Z,17.08
2018-09-14T21:31:27.908Z,17.00
2018-09-14T21:33:55.854Z,17.19
2018-09-14T21:36:23.443Z,17.15
2018-09-14T21:38:50.981Z,17.10
2018-09-14T21:41:26.844Z,17.15
2018-09-14T21:43:55.657Z,17.21
2018-09-14T21:46:23.428Z,17.23
2018-09-14T21:48:51.118Z,17.28
2018-09-14T21:51:18.941Z,17.29
2018-09-14T21:53:46.665Z,17.21
2018-09-14T21:56:14.189Z,17.21
2018-09-14T21:58:41.777Z,17.12
2018-09-14T22:01:09.305Z,17.09
2018-09-14T22:03:36.881Z,16.99
2018-09-14T22:06:04.439Z,16.95
2018-09-14T22:08:32.007Z,16.86
2018-09-14T22:11:00.660Z,16.98
2018-09-14T22:13:28.450Z,16.51
2018-09-14T22:15:57.092Z,16.86
2018-09-14T22:18:25.805Z,16.57
2018-09-14T22:20:53.509Z,16.45
2018-09-14T22:23:21.120Z,16.43
2018-09-14T22:25:48.764Z,16.44
2018-09-14T22:28:16.368Z,16.63
2018-09-14T22:30:43.970Z,16.30
2018-09-14T22:33:11.511Z,16.35
2018-09-14T22:35:39.234Z,16.32
2018-09-14T22:38:07.937Z,16.43
2018-09-14T22:40:36.712Z,16.55
2018-09-14T22:43:04.338Z,16.53
2018-09-14T22:45:31.960Z,16.41
2018-09-14T22:48:07.254Z,16.55
2018-09-14T22:50:36.950Z,16.70
2018-09-14T22:53:04.598Z,16.48
2018-09-14T22:55:32.281Z,16.79
2018-09-14T22:57:59.991Z,16.52
2018-09-14T23:00:27.710Z,16.51
2018-09-14T23:02:55.276Z,16.57
2018-09-14T23:05:22.909Z,16.61
2018-09-14T23:07:50.647Z,16.81
2018-09-14T23:10:18.268Z,16.72
2018-09-14T23:12:45.899Z,16.47
2018-09-14T23:15:13.427Z,16.27
2018-09-14T23:17:40.931Z,16.31
2018-09-14T23:20:08.510Z,16.31
2018-09-14T23:22:36.033Z,16.24
2018-09-14T23:25:03.595Z,16.37
2018-09-14T23:27:31.160Z,15.96
2018-09-14T23:29:58.708Z,15.76
2018-09-14T23:32:26.210Z,15.97
2018-09-14T23:34:56.365Z,15.74
2018-09-14T23:37:23.906Z,15.64
2018-09-14T23:39:52.573Z,15.79
2018-09-14T23:42:20.100Z,15.61
2018-09-14T23:44:55.528Z,15.42
2018-09-14T23:47:27.027Z,15.25
2018-09-14T23:49:54.709Z,15.42
2018-09-14T23:52:22.268Z,15.18
2018-09-14T23:54:49.844Z,15.20
2018-09-14T23:57:20.918Z,15.60
2018-09-14T23:59:49.086Z,15.49
